Anniston, Missouri
Current Conditions -  °F | °C
As of 6:55 PM on Saturday 22 Nov 2014 (Local Time) from KCIR Reporting Station
Overcast Overcast  
Wind Chill: 17°   Ceiling: 4700
Heat Index: 17°   Visibility: 10mi
Dew Point:   Wind: 9mph
Humidity: 45%   Direction: 170°S
Pressure: 30.04"   Gusts: NA
Location:  36.83°N, 89.33°W
Report Text: KCIR 230055Z AUTO 17008KT 10SM OVC047 17/05 A3004 RMK AO2 T01670046
Loading
Personal Weather Stations






























Interactive Weather Map New forecast layout! Learn more

10-Day Weather Forecast

Advertisements
Track Severe Weather on mobile